Time;durP1;ratioP1;P1;durP2;ratioP2;P2;SDS_P1;SDS_P2;PMS_P1;PMS_P2;Temp;Humidity;BMP_temperature;BMP_pressure;BME280_temperature;BME280_humidity;BME280_pressure;Samples;Min_cycle;Max_cycle;Signal;HPM_P1;HPM_P2
2021/01/07 00:00:49;;;;;;;41.65;21.17;;;3.10;99.90;;;;;;4965816;28;20113;-77
2021/01/07 00:03:15;;;;;;;44.97;22.55;;;3.10;99.90;;;;;;4967228;28;20050;-77
2021/01/07 00:05:42;;;;;;;37.92;20.88;;;3.10;99.90;;;;;;4971802;28;20051;-76
2021/01/07 00:08:09;;;;;;;34.45;20.58;;;3.10;99.90;;;;;;4977462;28;20062;-78
2021/01/07 00:10:36;;;;;;;42.60;20.25;;;3.10;99.90;;;;;;4977549;28;20070;-77
2021/01/07 00:13:02;;;;;;;34.42;20.70;;;3.10;99.90;;;;;;4974437;28;20046;-77
2021/01/07 00:15:29;;;;;;;37.97;21.80;;;3.10;99.90;;;;;;4963979;29;20085;-79
2021/01/07 00:17:55;;;;;;;34.65;19.90;;;3.10;99.90;;;;;;4966120;29;20079;-78
2021/01/07 00:20:21;;;;;;;41.88;20.33;;;3.00;99.90;;;;;;4971447;29;20098;-79
2021/01/07 00:22:48;;;;;;;38.50;22.23;;;3.00;99.90;;;;;;4967374;29;20043;-78
2021/01/07 00:25:15;;;;;;;34.63;20.63;;;3.00;99.90;;;;;;4963096;29;20505;-79
2021/01/07 00:27:41;;;;;;;37.38;21.75;;;3.00;99.90;;;;;;4960007;29;20106;-78
2021/01/07 00:30:09;;;;;;;40.20;22.50;;;3.00;99.90;;;;;;4956204;29;20138;-78
2021/01/07 00:32:35;;;;;;;38.67;22.20;;;3.10;99.90;;;;;;4955475;29;20126;-78
2021/01/07 00:35:02;;;;;;;39.97;22.00;;;3.10;99.90;;;;;;4956439;29;20486;-78
2021/01/07 00:37:28;;;;;;;33.95;20.90;;;3.10;99.90;;;;;;4956482;29;20111;-78
2021/01/07 00:39:54;;;;;;;41.55;22.05;;;3.10;99.90;;;;;;4956183;29;20134;-80
2021/01/07 00:42:22;;;;;;;35.95;21.38;;;3.10;99.90;;;;;;4956086;29;20102;-77
2021/01/07 00:44:48;;;;;;;40.33;22.48;;;3.10;99.90;;;;;;4954552;29;20136;-77
2021/01/07 00:47:14;;;;;;;41.95;22.55;;;3.10;99.90;;;;;;4956208;29;20097;-79
2021/01/07 00:49:44;;;;;;;43.38;23.45;;;3.00;99.90;;;;;;4955922;29;20575;-77
2021/01/07 00:52:11;;;;;;;43.72;24.70;;;3.10;99.90;;;;;;4955598;29;20055;-78
2021/01/07 00:54:37;;;;;;;36.67;21.35;;;3.10;99.90;;;;;;4954660;28;20090;-79
2021/01/07 00:57:04;;;;;;;39.38;23.50;;;3.20;99.90;;;;;;5024508;23;20467;-82
2021/01/07 00:59:31;;;;;;;38.05;22.98;;;3.20;99.90;;;;;;5013219;28;20092;-82
2021/01/07 01:01:57;;;;;;;46.05;23.73;;;3.20;99.90;;;;;;5016258;28;20542;-82
2021/01/07 01:04:24;;;;;;;42.85;24.02;;;3.20;99.90;;;;;;5021018;28;20133;-80
2021/01/07 01:06:50;;;;;;;40.90;24.13;;;3.20;99.90;;;;;;5020005;28;20046;-82
2021/01/07 01:09:17;;;;;;;37.67;23.30;;;3.20;99.90;;;;;;5018687;28;20082;-82
2021/01/07 01:11:45;;;;;;;46.10;24.55;;;3.20;99.90;;;;;;5018173;28;20089;-80
2021/01/07 01:14:13;;;;;;;42.22;25.30;;;3.20;99.90;;;;;;5019842;28;20132;-82
2021/01/07 01:16:40;;;;;;;42.15;24.80;;;3.20;99.90;;;;;;5019477;28;20077;-80
2021/01/07 01:19:07;;;;;;;45.97;25.95;;;3.20;99.90;;;;;;5019614;28;20054;-82
2021/01/07 01:21:34;;;;;;;43.10;26.00;;;3.20;99.90;;;;;;5018822;28;20070;-81
2021/01/07 01:24:01;;;;;;;44.03;25.25;;;3.20;99.90;;;;;;5019261;28;20085;-83
2021/01/07 01:26:27;;;;;;;43.60;24.88;;;3.20;99.90;;;;;;5019491;28;20586;-80
2021/01/07 01:28:53;;;;;;;39.90;23.98;;;3.30;99.90;;;;;;5020526;28;20047;-81
2021/01/07 01:31:20;;;;;;;41.50;26.33;;;3.20;99.90;;;;;;5019394;28;20084;-84
2021/01/07 01:33:47;;;;;;;47.38;25.63;;;3.30;99.90;;;;;;5019438;28;20077;-82
2021/01/07 01:36:13;;;;;;;45.25;25.38;;;3.30;99.90;;;;;;5018342;28;20049;-80
2021/01/07 01:38:40;;;;;;;42.90;25.92;;;3.40;99.90;;;;;;5019213;28;20100;-81
2021/01/07 01:41:07;;;;;;;44.33;25.52;;;3.40;99.90;;;;;;5019817;28;20123;-81
2021/01/07 01:43:35;;;;;;;44.30;25.83;;;3.40;99.90;;;;;;5020999;28;20077;-81
2021/01/07 01:46:02;;;;;;;44.30;24.83;;;3.30;99.90;;;;;;5020184;28;20104;-80
2021/01/07 01:48:29;;;;;;;44.95;25.35;;;3.30;99.90;;;;;;5020332;28;20089;-83
2021/01/07 01:50:59;;;;;;;46.80;26.40;;;3.30;99.90;;;;;;5022967;28;20054;-84
2021/01/07 01:53:26;;;;;;;44.85;27.52;;;3.30;99.90;;;;;;5022065;28;20087;-84
2021/01/07 01:55:53;;;;;;;43.08;26.85;;;3.30;99.90;;;;;;5021202;28;20558;-83
2021/01/07 01:58:21;;;;;;;49.78;28.63;;;3.20;99.90;;;;;;5021233;28;20081;-84
2021/01/07 02:00:47;;;;;;;54.28;28.10;;;3.20;99.90;;;;;;5021296;28;20087;-82
2021/01/07 02:03:13;;;;;;;46.58;28.00;;;3.20;99.90;;;;;;5020645;28;20103;-83
2021/01/07 02:05:40;;;;;;;43.00;26.48;;;3.20;99.90;;;;;;5022627;28;20062;-82
2021/01/07 02:08:10;;;;;;;44.88;27.50;;;3.20;99.90;;;;;;5024518;28;20108;-81
2021/01/07 02:10:37;;;;;;;44.03;28.20;;;3.30;99.90;;;;;;5025956;28;20447;-83
2021/01/07 02:13:04;;;;;;;45.10;28.48;;;3.30;99.90;;;;;;5024779;28;20085;-83
2021/01/07 02:15:31;;;;;;;44.17;27.65;;;3.20;99.90;;;;;;5024533;28;20085;-83
2021/01/07 02:17:57;;;;;;;42.70;27.45;;;3.20;99.90;;;;;;5023426;28;20061;-81
2021/01/07 02:20:26;;;;;;;41.95;26.15;;;3.20;99.90;;;;;;5025160;28;20086;-82
2021/01/07 02:22:53;;;;;;;44.50;27.75;;;3.10;99.90;;;;;;5023581;28;20073;-82
2021/01/07 02:25:20;;;;;;;46.13;28.50;;;3.10;99.90;;;;;;5024074;28;20053;-82
2021/01/07 02:27:46;;;;;;;47.35;27.05;;;3.00;99.90;;;;;;5024467;28;20089;-81
2021/01/07 02:30:14;;;;;;;39.97;26.48;;;3.10;99.90;;;;;;5025069;28;20153;-79
2021/01/07 02:32:40;;;;;;;44.03;26.30;;;3.10;99.90;;;;;;5023821;28;20049;-81
2021/01/07 02:35:08;;;;;;;42.45;25.92;;;3.10;99.90;;;;;;5024346;28;20074;-82
2021/01/07 02:37:36;;;;;;;47.17;26.65;;;3.00;99.90;;;;;;5024961;28;20127;-85
2021/01/07 02:40:04;;;;;;;43.88;25.77;;;3.00;99.90;;;;;;5025242;28;20050;-83
2021/01/07 02:42:30;;;;;;;49.63;26.05;;;3.10;99.90;;;;;;5024762;28;20096;-83
2021/01/07 02:44:56;;;;;;;43.22;25.27;;;3.10;99.90;;;;;;5024805;28;20111;-84
2021/01/07 02:47:23;;;;;;;40.92;24.15;;;3.20;99.90;;;;;;5023374;28;20118;-83
2021/01/07 02:49:50;;;;;;;41.97;23.85;;;3.20;99.90;;;;;;5022948;28;20128;-82
2021/01/07 02:52:16;;;;;;;43.08;23.88;;;3.20;99.90;;;;;;5024769;28;20101;-82
2021/01/07 02:54:43;;;;;;;43.80;24.67;;;3.10;99.90;;;;;;5024008;28;20061;-82
2021/01/07 02:57:10;;;;;;;40.70;22.90;;;3.20;99.90;;;;;;5022925;28;20133;-83
2021/01/07 02:59:36;;;;;;;45.90;23.98;;;3.20;99.90;;;;;;5021950;28;20129;-83
2021/01/07 03:02:02;;;;;;;40.03;23.65;;;3.20;99.90;;;;;;5021533;28;20077;-84
2021/01/07 03:04:29;;;;;;;44.03;25.70;;;3.20;99.90;;;;;;5022027;28;20077;-84
2021/01/07 03:06:55;;;;;;;51.28;28.85;;;3.10;99.90;;;;;;5022288;28;20050;-81
2021/01/07 03:09:22;;;;;;;48.38;29.88;;;3.10;99.90;;;;;;5022927;28;20069;-85
2021/01/07 03:11:49;;;;;;;49.35;30.15;;;3.00;99.90;;;;;;5023284;28;20084;-84
2021/01/07 03:14:15;;;;;;;47.75;26.75;;;3.00;99.90;;;;;;5021024;28;20092;-83
2021/01/07 03:16:42;;;;;;;48.00;27.13;;;3.10;99.90;;;;;;5019139;28;20205;-82
2021/01/07 03:19:08;;;;;;;49.35;26.40;;;3.00;99.90;;;;;;5019117;28;20085;-84
2021/01/07 03:21:41;;;;;;;53.08;28.15;;;3.10;99.90;;;;;;5018245;28;20073;-83
2021/01/07 03:24:07;;;;;;;;;;;3.10;99.90;;;;;;5018598;28;20056;-82
2021/01/07 03:26:34;;;;;;;50.45;26.08;;;3.00;99.90;;;;;;5018446;28;20008;-81
2021/01/07 03:29:01;;;;;;;48.90;25.92;;;2.90;99.90;;;;;;5018357;28;20109;-82
2021/01/07 03:31:27;;;;;;;48.92;26.73;;;2.90;99.90;;;;;;5021818;28;20049;-83
2021/01/07 03:33:54;;;;;;;50.00;26.40;;;2.90;99.90;;;;;;5020624;28;20124;-81
2021/01/07 03:36:20;;;;;;;49.33;25.13;;;2.90;99.90;;;;;;5020515;28;20057;-82
2021/01/07 03:38:47;;;;;;;53.22;27.05;;;2.90;99.90;;;;;;5019970;28;20054;-84
2021/01/07 03:41:13;;;;;;;46.58;24.77;;;3.00;99.90;;;;;;5020374;28;20139;-83
2021/01/07 03:43:39;;;;;;;51.78;26.30;;;3.00;99.90;;;;;;5020458;28;20081;-82
2021/01/07 03:46:07;;;;;;;51.13;27.83;;;3.00;99.90;;;;;;5018748;28;20050;-83
2021/01/07 03:48:33;;;;;;;51.15;25.02;;;3.00;99.90;;;;;;5020345;28;20080;-81
2021/01/07 03:51:00;;;;;;;43.75;24.58;;;3.00;99.90;;;;;;5020195;28;20162;-80
2021/01/07 03:53:26;;;;;;;49.95;25.17;;;3.00;99.90;;;;;;5020025;28;20089;-81
2021/01/07 03:55:52;;;;;;;47.35;24.52;;;3.00;99.90;;;;;;5019837;28;20135;-82
2021/01/07 03:58:19;;;;;;;51.78;26.58;;;3.00;99.90;;;;;;5020871;28;20089;-83
2021/01/07 04:00:45;;;;;;;45.72;24.70;;;3.00;99.90;;;;;;5019998;28;20137;-83
2021/01/07 04:03:12;;;;;;;44.53;25.00;;;3.00;99.90;;;;;;5010251;28;20045;-82
2021/01/07 04:05:39;;;;;;;50.90;26.92;;;3.00;99.90;;;;;;4977060;28;20047;-81
2021/01/07 04:08:05;;;;;;;49.42;26.77;;;3.00;99.90;;;;;;4979145;28;20109;-83
2021/01/07 04:10:32;;;;;;;49.50;27.02;;;3.00;99.90;;;;;;4981404;28;20074;-82
2021/01/07 04:12:59;;;;;;;50.10;28.13;;;3.00;99.90;;;;;;4980930;28;20042;-80
2021/01/07 04:15:25;;;;;;;43.75;26.70;;;3.00;99.90;;;;;;5006333;28;20107;-82
2021/01/07 04:17:52;;;;;;;49.90;27.88;;;3.10;99.90;;;;;;5018619;28;20494;-82
2021/01/07 04:20:19;;;;;;;51.65;28.67;;;3.10;99.90;;;;;;5009642;28;20447;-82
2021/01/07 04:22:46;;;;;;;48.03;27.23;;;3.10;99.90;;;;;;5000818;28;20481;-81
2021/01/07 04:25:13;;;;;;;56.75;33.85;;;3.00;99.90;;;;;;5000389;28;20082;-83
2021/01/07 04:27:39;;;;;;;47.67;25.90;;;3.00;99.90;;;;;;5000025;28;20101;-82
2021/01/07 04:30:07;;;;;;;51.70;27.58;;;3.00;99.90;;;;;;4999769;28;20090;-82
2021/01/07 04:32:33;;;;;;;49.42;26.50;;;3.00;99.90;;;;;;5000801;28;20130;-83
2021/01/07 04:35:00;;;;;;;51.10;27.10;;;3.00;99.90;;;;;;5000837;28;20050;-83
2021/01/07 04:37:27;;;;;;;48.70;27.42;;;3.00;99.90;;;;;;5001046;28;20078;-82
2021/01/07 04:39:53;;;;;;;51.55;27.13;;;3.00;99.90;;;;;;5007551;28;20081;-82
2021/01/07 04:42:20;;;;;;;50.80;26.55;;;3.00;99.90;;;;;;5011305;28;20074;-82
2021/01/07 04:44:47;;;;;;;50.67;25.58;;;3.00;99.90;;;;;;5012057;28;20050;-82
2021/01/07 04:47:13;;;;;;;44.05;24.90;;;3.00;99.90;;;;;;5010165;28;20066;-83
2021/01/07 04:49:40;;;;;;;47.88;25.70;;;3.10;99.90;;;;;;5006837;28;20410;-84
2021/01/07 04:52:06;;;;;;;48.20;26.58;;;3.10;99.90;;;;;;4999379;28;20152;-82
2021/01/07 04:54:33;;;;;;;51.90;28.05;;;3.00;99.90;;;;;;5000069;28;20110;-82
2021/01/07 04:57:00;;;;;;;51.90;27.05;;;3.00;99.90;;;;;;4999641;28;20323;-82
2021/01/07 04:59:27;;;;;;;54.97;29.52;;;3.00;99.90;;;;;;4998491;28;20073;-81
2021/01/07 05:01:53;;;;;;;44.72;24.83;;;3.00;99.90;;;;;;4998882;28;20133;-82
2021/01/07 05:04:20;;;;;;;52.25;26.08;;;3.00;99.90;;;;;;4998698;28;20050;-81
2021/01/07 05:06:47;;;;;;;53.90;27.27;;;3.10;99.90;;;;;;4999139;28;20074;-83
2021/01/07 05:09:15;;;;;;;48.30;27.02;;;3.10;99.90;;;;;;4999104;28;20105;-82
2021/01/07 05:11:43;;;;;;;51.72;26.50;;;3.20;99.90;;;;;;4999881;28;20137;-82
2021/01/07 05:14:11;;;;;;;52.90;25.40;;;3.20;99.90;;;;;;5000045;28;20046;-82
2021/01/07 05:16:38;;;;;;;50.85;26.02;;;3.20;99.90;;;;;;4998316;28;20106;-81
2021/01/07 05:19:06;;;;;;;51.05;26.63;;;3.20;99.90;;;;;;4997178;28;20080;-83
2021/01/07 05:21:34;;;;;;;48.85;25.77;;;3.30;99.90;;;;;;4998219;28;20050;-81
2021/01/07 05:24:02;;;;;;;47.65;25.67;;;3.30;99.90;;;;;;5001861;28;20046;-79
2021/01/07 05:26:29;;;;;;;52.65;26.60;;;3.30;99.90;;;;;;5001167;28;20050;-81
2021/01/07 05:28:58;;;;;;;49.25;25.80;;;3.40;99.90;;;;;;4997511;28;20137;-80
2021/01/07 05:31:26;;;;;;;46.75;25.00;;;3.40;99.90;;;;;;4998071;28;20619;-81
2021/01/07 05:33:53;;;;;;;49.17;26.95;;;3.40;99.90;;;;;;4998116;28;20443;-82
2021/01/07 05:36:24;;;;;;;52.50;27.65;;;3.40;99.90;;;;;;4999204;28;20082;-80
2021/01/07 05:38:51;;;;;;;50.60;26.27;;;3.40;99.90;;;;;;4998034;28;20101;-81
2021/01/07 05:41:18;;;;;;;52.15;26.90;;;3.40;99.90;;;;;;5001646;28;20106;-81
2021/01/07 05:43:45;;;;;;;58.17;28.75;;;3.40;99.90;;;;;;5001982;28;20133;-81
2021/01/07 05:46:13;;;;;;;52.67;26.90;;;3.40;99.90;;;;;;5002011;28;20074;-80
2021/01/07 05:48:39;;;;;;;55.17;27.95;;;3.30;99.90;;;;;;5000447;28;20133;-80
2021/01/07 05:51:06;;;;;;;54.67;26.08;;;3.30;99.90;;;;;;5001499;28;20082;-79
2021/01/07 05:53:33;;;;;;;54.42;28.13;;;3.20;99.90;;;;;;5000878;28;20085;-81
2021/01/07 05:55:59;;;;;;;49.72;27.25;;;3.20;99.90;;;;;;5001366;28;20085;-81
2021/01/07 05:58:27;;;;;;;51.85;28.00;;;3.20;99.90;;;;;;5004534;28;20143;-83
2021/01/07 06:00:55;;;;;;;55.92;28.45;;;3.20;99.90;;;;;;5006585;28;20073;-80
2021/01/07 06:03:24;;;;;;;59.85;29.38;;;3.20;99.90;;;;;;5002982;28;20054;-82
2021/01/07 06:05:53;;;;;;;56.40;29.05;;;3.10;99.90;;;;;;5002717;28;20104;-81
2021/01/07 06:08:19;;;;;;;58.15;30.15;;;3.20;99.90;;;;;;5003790;28;20068;-80
2021/01/07 06:10:47;;;;;;;64.35;32.28;;;3.20;99.90;;;;;;5003357;28;20082;-82
2021/01/07 06:13:13;;;;;;;66.82;33.28;;;3.20;99.90;;;;;;5003214;28;20101;-81
2021/01/07 06:15:42;;;;;;;67.25;31.75;;;3.10;99.90;;;;;;5002659;28;20074;-80
2021/01/07 06:18:14;;;;;;;70.88;33.88;;;3.00;99.90;;;;;;5002727;28;20503;-79
2021/01/07 06:20:41;;;;;;;67.40;33.10;;;3.00;99.90;;;;;;5001696;28;20089;-79
2021/01/07 06:23:19;;;;;;;73.38;33.80;;;2.90;99.90;;;;;;5001355;28;20081;-82
2021/01/07 06:25:46;;;;;;;71.10;32.25;;;3.00;99.90;;;;;;5001771;28;20065;-80
2021/01/07 06:28:26;;;;;;;70.50;33.95;;;3.00;99.90;;;;;;5001496;28;20085;-82
2021/01/07 06:30:56;;;;;;;71.50;33.45;;;2.90;99.90;;;;;;5006357;28;20464;-82
2021/01/07 06:33:24;;;;;;;70.88;33.28;;;2.90;99.90;;;;;;5004027;28;20104;-82
2021/01/07 06:35:52;;;;;;;68.05;31.65;;;2.80;99.90;;;;;;5002930;28;20077;-82
2021/01/07 06:38:26;;;;;;;67.45;31.50;;;2.90;99.90;;;;;;5003056;28;20086;-81
2021/01/07 06:40:57;;;;;;;74.15;33.75;;;2.90;99.90;;;;;;5002100;28;20054;-82
2021/01/07 06:43:25;;;;;;;76.32;36.13;;;2.80;99.90;;;;;;5001487;28;20077;-82
2021/01/07 06:45:53;;;;;;;70.78;32.33;;;2.70;99.90;;;;;;5002726;28;20054;-82
2021/01/07 06:48:34;;;;;;;76.25;35.65;;;2.70;99.90;;;;;;5007230;28;20073;-81
2021/01/07 06:51:03;;;;;;;66.72;32.58;;;2.80;99.90;;;;;;5002315;28;20509;-78
2021/01/07 06:53:36;;;;;;;68.57;32.92;;;2.80;99.90;;;;;;5002076;28;20050;-81
2021/01/07 06:56:18;;;;;;;74.60;32.70;;;2.80;99.90;;;;;;5002970;28;20081;-78
2021/01/07 06:58:46;;;;;;;65.70;30.67;;;2.80;99.90;;;;;;5000515;28;20051;-80
2021/01/07 07:01:17;;;;;;;62.25;30.10;;;2.90;99.90;;;;;;5000283;28;20084;-78
2021/01/07 07:03:51;;;;;;;59.03;29.60;;;2.90;99.90;;;;;;5001923;28;20133;-77
2021/01/07 07:06:21;;;;;;;53.97;27.98;;;2.90;99.90;;;;;;5007333;28;20077;-82
2021/01/07 07:08:48;;;;;;;57.00;28.58;;;2.80;99.90;;;;;;5014775;28;20050;-80
2021/01/07 07:11:37;;;;;;;54.20;28.38;;;2.80;99.90;;;;;;5013354;28;20090;-82
2021/01/07 07:14:07;;;;;;;57.13;28.23;;;2.80;99.90;;;;;;5003943;28;20050;-80
2021/01/07 07:16:37;;;;;;;61.58;30.00;;;2.80;99.90;;;;;;5013970;28;20049;-80
2021/01/07 07:19:07;;;;;;;61.47;28.88;;;2.70;99.90;;;;;;5014096;28;20084;-82
2021/01/07 07:21:35;;;;;;;53.90;26.67;;;2.80;99.90;;;;;;5013035;28;20037;-82
2021/01/07 07:24:11;;;;;;;55.17;27.35;;;2.80;99.90;;;;;;5014577;28;20101;-84
2021/01/07 07:26:40;;;;;;;52.90;26.67;;;2.80;99.90;;;;;;5014663;28;20062;-81
2021/01/07 07:29:11;;;;;;;55.75;28.60;;;2.80;99.90;;;;;;5013786;28;20054;-84
2021/01/07 07:31:42;;;;;;;49.72;26.45;;;2.80;99.90;;;;;;5014087;28;20050;-81
2021/01/07 07:34:10;;;;;;;54.55;27.73;;;2.80;99.90;;;;;;5012357;28;20133;-82
2021/01/07 07:36:37;;;;;;;53.90;26.80;;;2.80;99.90;;;;;;5011240;28;20073;-82
2021/01/07 07:39:06;;;;;;;57.33;28.55;;;2.80;99.90;;;;;;5006154;28;20137;-83
2021/01/07 07:41:39;;;;;;;54.17;27.42;;;2.70;99.90;;;;;;5002307;28;20046;-80
2021/01/07 07:44:06;;;;;;;55.60;26.27;;;2.70;99.90;;;;;;5002333;28;20042;-83
2021/01/07 07:46:33;;;;;;;61.03;29.85;;;2.70;99.90;;;;;;5002508;28;20646;-83
2021/01/07 07:49:02;;;;;;;58.03;27.92;;;2.70;99.90;;;;;;5002188;28;20129;-81
2021/01/07 07:51:29;;;;;;;54.58;27.10;;;2.60;99.90;;;;;;5002416;28;20423;-83
2021/01/07 07:54:08;;;;;;;57.90;29.48;;;2.70;99.90;;;;;;5002377;28;20054;-82
2021/01/07 07:56:34;;;;;;;61.25;28.65;;;2.70;99.90;;;;;;5002675;28;20101;-85
2021/01/07 07:59:02;;;;;;;61.25;30.30;;;2.70;99.90;;;;;;5003614;28;20061;-82
2021/01/07 08:01:43;;;;;;;69.32;31.98;;;2.70;99.90;;;;;;5001182;28;20104;-83
2021/01/07 08:04:17;;;;;;;63.35;31.90;;;2.80;99.90;;;;;;5002516;28;20046;-81
2021/01/07 08:06:44;;;;;;;69.90;33.33;;;2.80;99.90;;;;;;5002569;28;20058;-82
2021/01/07 08:09:12;;;;;;;74.00;34.83;;;2.70;99.90;;;;;;5000967;28;20078;-83
2021/01/07 08:11:44;;;;;;;69.88;33.22;;;2.70;99.90;;;;;;5000822;28;20093;-82
2021/01/07 08:14:12;;;;;;;66.78;33.83;;;2.70;99.90;;;;;;5000596;28;20399;-82
2021/01/07 08:16:39;;;;;;;68.90;33.67;;;2.70;99.90;;;;;;5000800;28;20130;-81
2021/01/07 08:19:20;;;;;;;70.10;34.00;;;2.70;99.90;;;;;;5000720;28;20076;-82
2021/01/07 08:21:47;;;;;;;68.28;32.17;;;2.80;99.90;;;;;;5000585;28;20129;-82
2021/01/07 08:24:17;;;;;;;74.25;34.53;;;2.80;99.90;;;;;;5000502;28;20042;-83
2021/01/07 08:26:46;;;;;;;68.72;33.08;;;2.90;99.90;;;;;;5000845;28;20093;-82
2021/01/07 08:29:14;;;;;;;70.55;33.05;;;2.90;99.90;;;;;;5000797;28;20065;-83
2021/01/07 08:31:46;;;;;;;70.45;33.42;;;2.90;99.90;;;;;;5000693;28;20085;-82
2021/01/07 08:34:14;;;;;;;70.82;33.97;;;2.90;99.90;;;;;;5000541;28;20130;-82
2021/01/07 08:36:41;;;;;;;74.47;34.65;;;2.80;99.90;;;;;;4999921;28;20082;-83
2021/01/07 08:39:15;;;;;;;73.18;33.85;;;2.80;99.90;;;;;;5000462;28;20136;-83
2021/01/07 08:41:44;;;;;;;82.50;35.88;;;2.80;99.90;;;;;;5000536;28;20078;-83
2021/01/07 08:44:10;;;;;;;75.38;34.35;;;2.80;99.90;;;;;;5000343;28;20137;-83
2021/01/07 08:46:39;;;;;;;71.00;31.58;;;2.80;99.90;;;;;;4999252;28;20128;-82
2021/01/07 08:49:07;;;;;;;73.13;32.95;;;2.80;99.90;;;;;;5000534;28;20077;-82
2021/01/07 08:51:38;;;;;;;69.40;32.03;;;2.70;99.90;;;;;;4998894;28;20082;-81
2021/01/07 08:54:11;;;;;;;72.53;33.50;;;2.70;99.90;;;;;;5000905;28;20046;-82
2021/01/07 08:56:42;;;;;;;67.53;32.67;;;2.70;99.90;;;;;;5000060;28;20046;-84
2021/01/07 08:59:27;;;;;;;68.32;31.60;;;2.70;99.90;;;;;;5000444;28;20114;-80
2021/01/07 09:01:56;;;;;;;67.25;30.98;;;2.70;99.90;;;;;;4999877;28;20527;-82
2021/01/07 09:04:31;;;;;;;55.03;27.90;;;2.70;99.90;;;;;;5000101;28;20066;-82
2021/01/07 09:07:00;;;;;;;59.63;29.33;;;2.70;99.90;;;;;;4999974;28;20060;-81
2021/01/07 09:09:28;;;;;;;53.78;25.48;;;2.70;99.90;;;;;;5002049;28;20081;-82
2021/01/07 09:12:15;;;;;;;56.60;26.40;;;2.60;99.90;;;;;;5004759;28;20085;-81
2021/01/07 09:14:55;;;;;;;60.30;27.02;;;2.60;99.90;;;;;;5000076;28;20074;-79
2021/01/07 09:17:24;;;;;;;51.53;26.20;;;2.60;99.90;;;;;;4999895;28;20133;-83
2021/01/07 09:19:52;;;;;;;50.88;25.73;;;2.60;99.90;;;;;;5004075;28;20050;-81
2021/01/07 09:22:24;;;;;;;50.90;25.27;;;2.70;99.90;;;;;;5005276;28;20051;-81
2021/01/07 09:24:52;;;;;;;47.05;25.05;;;2.70;99.90;;;;;;5004615;28;20056;-79
2021/01/07 09:27:21;;;;;;;49.72;24.65;;;2.70;99.90;;;;;;5006567;28;20054;-81
2021/01/07 09:29:48;;;;;;;49.15;24.63;;;2.80;99.90;;;;;;5006559;28;20081;-80
2021/01/07 09:32:15;;;;;;;47.05;23.88;;;2.70;99.90;;;;;;5002728;28;20086;-80
2021/01/07 09:34:43;;;;;;;45.65;24.70;;;2.80;99.90;;;;;;5004479;28;20050;-80
2021/01/07 09:37:18;;;;;;;45.42;23.58;;;2.80;99.90;;;;;;5003215;28;20089;-79
2021/01/07 09:39:45;;;;;;;45.75;23.98;;;2.80;99.90;;;;;;5002809;28;20419;-79
2021/01/07 09:42:12;;;;;;;41.83;21.60;;;2.80;99.90;;;;;;4998263;28;20134;-79
2021/01/07 09:44:40;;;;;;;34.90;19.80;;;2.80;99.90;;;;;;4994392;28;20137;-79
2021/01/07 09:47:07;;;;;;;41.50;21.60;;;2.80;99.90;;;;;;4996514;28;20566;-78
2021/01/07 09:49:35;;;;;;;37.28;20.20;;;2.80;99.90;;;;;;4998828;28;20078;-80
2021/01/07 09:52:01;;;;;;;39.60;21.30;;;2.80;99.90;;;;;;4998304;28;20054;-81
2021/01/07 09:54:28;;;;;;;42.38;22.10;;;2.90;99.90;;;;;;4997563;28;20129;-80
2021/01/07 09:56:56;;;;;;;35.85;20.10;;;2.90;99.90;;;;;;4998977;28;20086;-79
2021/01/07 09:59:24;;;;;;;37.15;21.10;;;3.00;99.90;;;;;;4996872;28;20080;-79
2021/01/07 10:01:54;;;;;;;34.13;19.08;;;3.00;99.90;;;;;;4980646;28;20164;-79
2021/01/07 10:04:21;;;;;;;33.15;17.90;;;3.00;99.90;;;;;;4981200;28;20129;-79
2021/01/07 10:06:47;;;;;;;28.67;16.65;;;3.00;99.90;;;;;;4982359;28;20476;-79
2021/01/07 10:09:14;;;;;;;28.83;16.95;;;2.90;99.90;;;;;;4981013;28;20078;-81
2021/01/07 10:11:40;;;;;;;32.05;18.88;;;2.90;99.90;;;;;;4980766;28;20054;-78
2021/01/07 10:14:07;;;;;;;37.17;20.30;;;2.90;99.90;;;;;;4982450;28;20089;-79
2021/01/07 10:16:33;;;;;;;34.60;19.27;;;2.90;99.90;;;;;;4987273;28;20055;-79
2021/01/07 10:19:01;;;;;;;34.13;19.38;;;3.00;99.90;;;;;;4994472;28;20074;-81
2021/01/07 10:21:30;;;;;;;36.33;20.42;;;3.00;99.90;;;;;;4994842;28;20078;-80
2021/01/07 10:23:57;;;;;;;32.50;19.23;;;3.00;99.90;;;;;;5003265;28;20046;-82
2021/01/07 10:26:23;;;;;;;33.95;19.08;;;3.00;99.90;;;;;;4995057;28;20066;-80
2021/01/07 10:28:50;;;;;;;32.13;18.05;;;3.00;99.90;;;;;;5001803;28;20198;-79
2021/01/07 10:31:18;;;;;;;29.40;17.98;;;3.00;99.90;;;;;;5005017;28;20051;-80
2021/01/07 10:33:45;;;;;;;31.00;18.10;;;2.90;99.90;;;;;;5000439;28;20078;-80
2021/01/07 10:36:14;;;;;;;33.10;18.55;;;2.90;99.90;;;;;;4994066;28;20085;-79
2021/01/07 10:38:42;;;;;;;33.97;19.05;;;2.90;99.90;;;;;;4989280;28;20106;-82
2021/01/07 10:41:09;;;;;;;33.22;18.63;;;2.90;99.90;;;;;;4995488;28;20051;-80
2021/01/07 10:43:36;;;;;;;29.95;17.27;;;2.90;99.90;;;;;;4986629;28;20130;-78
2021/01/07 10:46:03;;;;;;;32.83;19.40;;;3.00;99.90;;;;;;4986264;28;20105;-79
2021/01/07 10:48:35;;;;;;;33.97;18.23;;;2.90;99.90;;;;;;4984228;28;20127;-80
2021/01/07 10:51:03;;;;;;;35.10;20.45;;;3.00;99.90;;;;;;5006955;28;20088;-78
2021/01/07 10:53:47;;;;;;;33.90;20.08;;;3.10;99.90;;;;;;4996005;28;20047;-79
2021/01/07 10:56:23;;;;;;;35.30;20.17;;;3.00;99.90;;;;;;4985108;28;20085;-80
2021/01/07 10:59:09;;;;;;;35.70;20.48;;;3.10;99.90;;;;;;4982420;28;20086;-81
2021/01/07 11:01:50;;;;;;;35.90;22.35;;;3.10;99.90;;;;;;4982976;28;20090;-82
2021/01/07 11:04:40;;;;;;;34.72;20.23;;;3.10;99.90;;;;;;4984531;28;20085;-80
2021/01/07 11:07:14;;;;;;;33.10;19.77;;;3.10;99.90;;;;;;4982330;28;20082;-78
2021/01/07 11:09:46;;;;;;;34.47;20.58;;;3.10;99.90;;;;;;4982734;28;20046;-80
2021/01/07 11:12:18;;;;;;;37.30;20.05;;;3.10;99.90;;;;;;4982148;28;20089;-79
2021/01/07 11:14:50;;;;;;;33.17;20.20;;;3.00;99.90;;;;;;4982627;28;20082;-80
2021/01/07 11:17:23;;;;;;;36.28;19.40;;;3.20;99.90;;;;;;4986765;28;20073;-79
2021/01/07 11:19:50;;;;;;;35.10;20.27;;;3.10;99.90;;;;;;4987433;28;20062;-78
2021/01/07 11:22:20;;;;;;;33.78;19.70;;;3.10;99.90;;;;;;4988359;28;20047;-80
2021/01/07 11:24:49;;;;;;;29.83;19.35;;;3.10;99.90;;;;;;4985576;28;20074;-80
2021/01/07 11:27:15;;;;;;;29.92;18.75;;;3.10;99.90;;;;;;4983800;28;20061;-79
2021/01/07 11:29:42;;;;;;;29.58;17.65;;;3.10;99.90;;;;;;4983713;28;20051;-78
2021/01/07 11:32:09;;;;;;;33.35;18.98;;;3.10;99.90;;;;;;4985695;28;20082;-80
2021/01/07 11:34:35;;;;;;;33.28;19.77;;;3.10;99.90;;;;;;4983766;28;20058;-79
2021/01/07 11:37:08;;;;;;;31.23;19.55;;;3.10;99.90;;;;;;4983643;28;20491;-78
2021/01/07 11:39:47;;;;;;;30.17;18.65;;;3.20;99.90;;;;;;4983949;28;20078;-80
2021/01/07 11:42:28;;;;;;;33.20;19.08;;;3.30;99.90;;;;;;4983931;28;20070;-81
2021/01/07 11:45:03;;;;;;;34.70;20.05;;;3.30;99.90;;;;;;4983462;28;20108;-79
2021/01/07 11:47:33;;;;;;;34.25;19.42;;;3.30;99.90;;;;;;4984032;28;20051;-79
2021/01/07 11:50:03;;;;;;;34.47;19.83;;;3.40;99.90;;;;;;4984425;28;20050;-81
2021/01/07 11:52:31;;;;;;;34.85;20.30;;;3.30;99.90;;;;;;4983837;28;20055;-79
2021/01/07 11:54:58;;;;;;;41.92;22.23;;;3.30;99.90;;;;;;4982697;28;20503;-80
2021/01/07 11:57:27;;;;;;;34.65;21.30;;;3.40;99.90;;;;;;4982675;28;20094;-79
2021/01/07 11:59:55;;;;;;;31.88;19.38;;;3.30;99.90;;;;;;4984436;28;20055;-80
2021/01/07 12:02:22;;;;;;;37.65;20.70;;;3.30;99.90;;;;;;4983150;28;20081;-79
2021/01/07 12:04:50;;;;;;;38.75;22.10;;;3.30;99.90;;;;;;4983343;28;20525;-80
2021/01/07 12:07:48;;;;;;;39.22;20.85;;;3.30;99.90;;;;;;4984453;28;20051;-79
2021/01/07 12:10:17;;;;;;;32.67;18.60;;;3.30;99.90;;;;;;4992857;28;20565;-80
2021/01/07 12:12:51;;;;;;;36.33;20.27;;;3.30;99.90;;;;;;5004284;28;20080;-79
2021/01/07 12:15:18;;;;;;;33.78;19.85;;;3.30;99.90;;;;;;5001335;28;20132;-79
2021/01/07 12:17:44;;;;;;;39.80;21.48;;;3.40;99.90;;;;;;4999605;28;20192;-80
2021/01/07 12:20:11;;;;;;;32.13;19.67;;;3.40;99.90;;;;;;4999728;28;20059;-79
2021/01/07 12:22:38;;;;;;;34.90;20.23;;;3.50;99.90;;;;;;4998842;28;20110;-79
2021/01/07 12:25:05;;;;;;;30.13;19.77;;;3.50;99.90;;;;;;5013103;28;20107;-79
2021/01/07 12:27:35;;;;;;;32.55;19.65;;;3.50;99.90;;;;;;5019162;28;20081;-79
2021/01/07 12:30:04;;;;;;;29.88;18.77;;;3.50;99.90;;;;;;5002435;28;20537;-79
2021/01/07 12:32:32;;;;;;;28.60;18.60;;;3.50;99.90;;;;;;4978820;28;20050;-78
2021/01/07 12:35:07;;;;;;;27.58;17.13;;;3.40;99.90;;;;;;4980672;28;20041;-78
2021/01/07 12:37:57;;;;;;;23.00;16.15;;;3.40;99.90;;;;;;4990257;28;20125;-79
2021/01/07 12:40:25;;;;;;;24.58;15.70;;;3.30;99.90;;;;;;4984704;28;20057;-77
2021/01/07 12:43:02;;;;;;;28.55;16.02;;;3.20;99.90;;;;;;4976467;28;20057;-79
2021/01/07 12:45:31;;;;;;;25.13;15.68;;;3.20;99.90;;;;;;4981830;28;20130;-79